Ana Sayfa
METAR-TAF:

METAR-TAF

Havaalanları :

Gambell, Alaska, Amerika Birleşik Devletleri

Enlem: 63-46N, Boylam: 171-44W, yükseklik: 8 m

Güncel hava durumu gözlemi

Rapor saat 07:56 UTC de 45 dakika önce yapıldı.
Rüzgar doğu/kuzeydoğudan 14 kt
Sıcaklık -2°C
Nem 93%
Basınç 996 hPa
Görüş mesafesi: 16.1 km
500 ft yükseklikte çok bulutlu

METAR: PAGM 240756Z AUTO 06014KT 10SM OVC005 M02/M03 A2941 RMK AO2 UPE29SNB17E27 SLP964 P0000 T10221028 FZRANO

Saat: 00:41 (08:41 UTC)


TAF: eksik

4.000'den fazla havaalanı için hava durumu gözlemleri ve tahminleri (METAR ve TAF raporları).

Kullanılabilir istasyonlar harita üzerinde sarı ve kırmızı noktalarla gösterilir.

İstasyonun adını görmek için fareyi noktanın üzerinde gezdirin.

Sonrasında hava gözlem ve tahminlerini görmek için tıklayın.

Haritayı değiştirmek için: yaklaştırmak için siyah artı işaretli yeşil düğmeye ve uzaklaştırmak için de eksi işaretli düğmeye hızla tıklayın; bitişik haritalar için yeşil okları kullanın.


METAR-TAF: